Time;durP1;ratioP1;P1;durP2;ratioP2;P2;SDS_P1;SDS_P2;PMS_P1;PMS_P2;Temp;Humidity;BMP_temperature;BMP_pressure;BME280_temperature;BME280_humidity;BME280_pressure;Samples;Min_cycle;Max_cycle;Signal;HPM_P1;HPM_P2
2021/12/03 00:00:15;;;;;;;8.73;2.83;;;2.50;90.50;;;;;;5069958;28;20772;-59
2021/12/03 00:02:42;;;;;;;7.32;2.92;;;2.50;90.40;;;;;;5066493;28;20040;-56
2021/12/03 00:05:09;;;;;;;13.88;2.65;;;2.60;90.30;;;;;;5069894;28;20430;-59
2021/12/03 00:07:39;;;;;;;14.00;2.50;;;2.60;90.30;;;;;;5069662;28;20049;-56
2021/12/03 00:10:07;;;;;;;8.90;3.00;;;2.60;90.30;;;;;;5069457;28;20048;-59
2021/12/03 00:12:34;;;;;;;11.95;3.50;;;2.70;90.10;;;;;;5066706;28;20080;-57
2021/12/03 00:15:01;;;;;;;7.55;2.33;;;2.70;89.40;;;;;;5068584;28;20094;-59
2021/12/03 00:17:28;;;;;;;7.05;1.88;;;2.70;90.00;;;;;;5068936;28;20041;-58
2021/12/03 00:19:55;;;;;;;8.80;2.22;;;2.80;89.50;;;;;;5068617;28;20090;-57
2021/12/03 00:22:21;;;;;;;11.93;2.30;;;2.80;90.00;;;;;;5069519;28;20041;-56
2021/12/03 00:24:48;;;;;;;9.43;2.22;;;2.80;89.80;;;;;;5069080;28;20470;-59
2021/12/03 00:27:15;;;;;;;7.22;1.92;;;2.90;89.20;;;;;;5067589;28;20117;-58
2021/12/03 00:29:42;;;;;;;7.93;2.00;;;2.90;89.20;;;;;;5068443;28;20549;-58
2021/12/03 00:32:09;;;;;;;8.65;1.80;;;2.90;89.70;;;;;;5067621;28;20044;-58
2021/12/03 00:34:36;;;;;;;11.05;2.58;;;2.90;89.30;;;;;;5068030;28;20113;-58
2021/12/03 00:37:03;;;;;;;3.97;1.70;;;2.90;89.30;;;;;;5066723;28;20044;-56
2021/12/03 00:39:30;;;;;;;3.17;1.45;;;3.00;89.10;;;;;;5068014;28;20045;-55
2021/12/03 00:42:00;;;;;;;8.40;1.92;;;3.00;88.90;;;;;;5068570;28;20462;-58
2021/12/03 00:44:29;;;;;;;4.65;1.90;;;3.00;88.40;;;;;;5069415;28;20041;-59
2021/12/03 00:46:56;;;;;;;14.20;3.70;;;3.00;88.80;;;;;;5069448;28;20044;-58
2021/12/03 00:49:23;;;;;;;5.00;2.05;;;3.10;89.20;;;;;;5068997;28;20306;-59
2021/12/03 00:51:50;;;;;;;7.30;2.22;;;3.10;89.30;;;;;;5069398;28;20044;-58
2021/12/03 00:54:17;;;;;;;4.22;1.80;;;3.20;89.50;;;;;;5067740;28;20060;-57
2021/12/03 00:56:44;;;;;;;9.77;2.60;;;3.10;89.70;;;;;;5069047;28;20048;-57
2021/12/03 00:59:11;;;;;;;10.05;2.40;;;3.20;89.60;;;;;;5068995;28;20122;-58
2021/12/03 01:01:38;;;;;;;7.85;2.45;;;3.20;90.00;;;;;;5069266;28;20060;-58
2021/12/03 01:04:08;;;;;;;5.95;2.53;;;3.20;89.60;;;;;;5067881;28;20510;-60
2021/12/03 01:06:35;;;;;;;7.95;2.50;;;3.20;88.80;;;;;;5068987;28;20048;-58
2021/12/03 01:09:03;;;;;;;7.03;1.88;;;3.20;89.30;;;;;;5069060;28;20053;-57
2021/12/03 01:11:30;;;;;;;16.48;2.58;;;3.20;89.20;;;;;;5068361;28;20072;-58
2021/12/03 01:14:00;;;;;;;9.68;1.80;;;3.30;89.60;;;;;;5068466;28;20048;-59
2021/12/03 01:16:30;;;;;;;8.75;1.52;;;3.30;89.30;;;;;;5068904;28;20044;-58
2021/12/03 01:18:57;;;;;;;6.93;2.00;;;3.30;88.80;;;;;;5068608;28;20048;-58
2021/12/03 01:21:24;;;;;;;6.05;1.88;;;3.30;89.00;;;;;;5067296;28;20040;-58
2021/12/03 01:23:51;;;;;;;6.22;1.35;;;3.40;88.60;;;;;;5068372;28;20442;-59
2021/12/03 01:26:19;;;;;;;6.25;1.98;;;3.40;88.80;;;;;;5068518;28;20049;-58
2021/12/03 01:28:46;;;;;;;4.72;1.60;;;3.30;88.60;;;;;;5068736;28;20048;-59
2021/12/03 01:31:13;;;;;;;6.22;1.88;;;3.40;88.60;;;;;;5065290;28;20045;-59
2021/12/03 01:33:41;;;;;;;7.32;1.70;;;3.40;88.90;;;;;;5067448;28;20048;-58
2021/12/03 01:36:07;;;;;;;7.30;1.50;;;3.40;88.50;;;;;;5068320;28;20136;-56
2021/12/03 01:38:34;;;;;;;4.20;1.38;;;3.40;88.00;;;;;;5068734;28;20123;-59
2021/12/03 01:41:01;;;;;;;4.47;2.17;;;3.30;87.60;;;;;;5067288;28;20079;-56
2021/12/03 01:43:28;;;;;;;5.40;2.97;;;3.50;88.30;;;;;;5068398;28;20053;-58
2021/12/03 01:46:01;;;;;;;12.50;2.10;;;3.40;88.00;;;;;;5068127;28;20052;-58
2021/12/03 01:48:28;;;;;;;5.63;1.55;;;3.40;87.50;;;;;;5067062;28;20492;-59
2021/12/03 01:50:55;;;;;;;5.03;1.58;;;3.30;86.80;;;;;;5067950;28;20044;-57
2021/12/03 01:53:25;;;;;;;9.05;1.60;;;3.60;87.60;;;;;;5068381;28;20166;-57
2021/12/03 01:55:54;;;;;;;5.05;1.38;;;3.40;87.40;;;;;;4714801;27;10000172;-56
2021/12/03 01:58:20;;;;;;;8.15;1.48;;;3.40;87.00;;;;;;5067755;28;20110;-58
2021/12/03 02:00:54;;;;;;;12.27;1.77;;;3.40;85.70;;;;;;5068385;28;20506;-58
2021/12/03 02:03:23;;;;;;;6.22;1.75;;;3.40;85.10;;;;;;5068149;28;20052;-58
2021/12/03 02:05:50;;;;;;;2.63;0.98;;;3.40;85.60;;;;;;5068216;28;20040;-59
2021/12/03 02:08:17;;;;;;;13.70;2.35;;;3.40;85.90;;;;;;5066909;28;20052;-59
2021/12/03 02:10:44;;;;;;;5.63;1.40;;;3.40;85.90;;;;;;5067606;28;20045;-59
2021/12/03 02:13:12;;;;;;;5.80;1.80;;;3.50;85.50;;;;;;5066788;28;20059;-61
2021/12/03 02:15:40;;;;;;;3.28;1.20;;;3.50;85.80;;;;;;5069082;28;20090;-58
2021/12/03 02:18:08;;;;;;;4.57;1.27;;;3.50;85.30;;;;;;5072106;28;20051;-57
2021/12/03 02:20:34;;;;;;;10.20;2.38;;;3.50;85.60;;;;;;5071867;28;20045;-58
2021/12/03 02:23:02;;;;;;;8.55;1.38;;;3.50;85.80;;;;;;5070682;28;20083;-57
2021/12/03 02:25:29;;;;;;;4.47;1.52;;;3.60;85.20;;;;;;5072160;28;20462;-57
2021/12/03 02:27:57;;;;;;;5.32;1.70;;;3.50;85.60;;;;;;5070534;28;20642;-58
2021/12/03 02:30:24;;;;;;;8.70;1.70;;;3.50;85.30;;;;;;5072045;28;20125;-59
2021/12/03 02:32:54;;;;;;;5.28;1.27;;;3.50;84.10;;;;;;5070067;28;20045;-59
2021/12/03 02:35:22;;;;;;;6.03;2.22;;;3.50;83.80;;;;;;5071996;28;20135;-59
2021/12/03 02:37:49;;;;;;;3.35;1.08;;;3.60;84.70;;;;;;5071542;28;20098;-57
2021/12/03 02:40:16;;;;;;;2.67;1.13;;;3.60;85.20;;;;;;5071699;28;20055;-57
2021/12/03 02:42:43;;;;;;;2.70;1.10;;;3.50;85.60;;;;;;5071113;28;20098;-58
2021/12/03 02:45:10;;;;;;;5.03;1.40;;;3.60;85.40;;;;;;5071768;28;20094;-58
2021/12/03 02:47:38;;;;;;;5.15;1.33;;;3.50;86.40;;;;;;5071505;28;20529;-58
2021/12/03 02:50:06;;;;;;;5.97;3.05;;;3.50;86.10;;;;;;5070402;28;20064;-57
2021/12/03 02:52:32;;;;;;;1.58;0.60;;;3.50;87.00;;;;;;5071216;28;20086;-58
2021/12/03 02:54:59;;;;;;;5.65;1.17;;;3.50;87.70;;;;;;5072206;28;20041;-57
2021/12/03 02:57:26;;;;;;;7.07;2.25;;;3.50;87.20;;;;;;5071373;28;20136;-56
2021/12/03 02:59:53;;;;;;;8.88;1.23;;;3.50;87.70;;;;;;5071654;28;20492;-57
2021/12/03 03:02:20;;;;;;;2.55;1.00;;;3.50;88.10;;;;;;5071024;28;20098;-58
2021/12/03 03:04:51;;;;;;;2.22;0.80;;;3.50;88.20;;;;;;5059680;28;20072;-59
2021/12/03 03:07:18;;;;;;;5.25;0.90;;;3.60;88.50;;;;;;5071292;28;20079;-57
2021/12/03 03:09:46;;;;;;;4.80;1.30;;;3.50;88.20;;;;;;5071302;28;20071;-58
2021/12/03 03:12:13;;;;;;;1.85;0.85;;;3.50;88.30;;;;;;5069573;28;20069;-57
2021/12/03 03:14:47;;;;;;;4.10;1.25;;;3.50;87.50;;;;;;5071351;28;20125;-58
2021/12/03 03:17:14;;;;;;;4.15;1.25;;;3.50;88.10;;;;;;5070165;28;20106;-58
2021/12/03 03:19:41;;;;;;;4.28;1.10;;;3.50;88.20;;;;;;5070084;28;20040;-56
2021/12/03 03:22:08;;;;;;;3.95;1.00;;;3.60;88.50;;;;;;5069811;28;20135;-58
2021/12/03 03:24:35;;;;;;;4.07;1.00;;;3.60;88.10;;;;;;5071287;28;20102;-59
2021/12/03 03:27:02;;;;;;;4.05;1.08;;;3.60;88.40;;;;;;5069939;28;20052;-58
2021/12/03 03:29:29;;;;;;;4.50;1.63;;;3.60;88.40;;;;;;5071204;28;20125;-58
2021/12/03 03:31:56;;;;;;;2.65;1.00;;;3.70;88.50;;;;;;5069906;28;20094;-58
2021/12/03 03:34:22;;;;;;;6.00;1.17;;;3.70;88.60;;;;;;5071325;28;20501;-58
2021/12/03 03:36:49;;;;;;;4.85;1.08;;;3.60;88.40;;;;;;5070118;28;20045;-57
2021/12/03 03:39:17;;;;;;;4.07;1.48;;;3.60;88.40;;;;;;5070497;28;20044;-57
2021/12/03 03:41:43;;;;;;;5.53;1.35;;;3.60;88.80;;;;;;5072908;28;20121;-59
2021/12/03 03:44:10;;;;;;;2.63;1.02;;;3.60;89.30;;;;;;5073764;28;20056;-60
2021/12/03 03:46:38;;;;;;;7.90;1.80;;;3.60;89.10;;;;;;5074469;28;20052;-57
2021/12/03 03:49:05;;;;;;;6.10;1.15;;;3.50;89.40;;;;;;5073301;28;20049;-55
2021/12/03 03:51:32;;;;;;;2.53;1.08;;;3.50;89.90;;;;;;5071424;28;20094;-58
2021/12/03 03:53:59;;;;;;;5.55;1.27;;;3.40;90.00;;;;;;5072254;28;20044;-57
2021/12/03 03:56:26;;;;;;;4.30;1.30;;;3.40;90.20;;;;;;5069915;28;20041;-57
2021/12/03 03:58:53;;;;;;;5.93;1.38;;;3.40;90.40;;;;;;5071690;28;20056;-59
2021/12/03 04:01:20;;;;;;;1.77;1.00;;;3.30;90.50;;;;;;5071905;28;20048;-59
2021/12/03 04:03:47;;;;;;;4.45;0.85;;;3.30;90.70;;;;;;5058020;28;20105;-58
2021/12/03 04:06:17;;;;;;;3.28;1.23;;;3.30;91.00;;;;;;5070811;28;20079;-58
2021/12/03 04:08:44;;;;;;;6.57;1.25;;;3.30;91.10;;;;;;5070557;28;20098;-60
2021/12/03 04:11:12;;;;;;;3.70;1.02;;;3.20;91.10;;;;;;5068489;28;20053;-59
2021/12/03 04:13:39;;;;;;;3.70;1.15;;;3.20;91.40;;;;;;5052777;28;20048;-57
2021/12/03 04:16:06;;;;;;;2.47;1.10;;;3.10;91.60;;;;;;5069265;28;20041;-58
2021/12/03 04:18:33;;;;;;;4.57;1.10;;;3.00;91.60;;;;;;5070855;28;20048;-60
2021/12/03 04:21:00;;;;;;;3.42;1.20;;;3.10;91.80;;;;;;5069202;28;20036;-57
2021/12/03 04:23:27;;;;;;;2.78;1.58;;;3.00;92.10;;;;;;5070491;28;20056;-58
2021/12/03 04:25:54;;;;;;;3.55;1.10;;;3.10;92.20;;;;;;5069647;28;20045;-59
2021/12/03 04:28:21;;;;;;;6.65;1.10;;;3.10;92.30;;;;;;5068998;28;20056;-59
2021/12/03 04:30:49;;;;;;;3.08;1.02;;;3.40;92.10;;;;;;5049576;28;20044;-58
2021/12/03 04:33:16;;;;;;;4.63;1.75;;;3.00;92.50;;;;;;5069663;28;20052;-61
2021/12/03 04:35:43;;;;;;;3.47;0.90;;;3.10;92.30;;;;;;5069459;28;20549;-57
2021/12/03 04:38:10;;;;;;;4.75;1.20;;;3.20;92.30;;;;;;5067732;28;20052;-56
2021/12/03 04:40:37;;;;;;;4.13;1.15;;;3.20;92.10;;;;;;5069051;28;20045;-58
2021/12/03 04:43:04;;;;;;;1.50;1.40;;;3.30;92.20;;;;;;5057448;28;20044;-58
2021/12/03 04:45:31;;;;;;;4.43;1.60;;;3.30;92.00;;;;;;5068213;28;20048;-56
2021/12/03 04:47:59;;;;;;;3.53;1.20;;;3.30;92.00;;;;;;5069067;28;20048;-56
2021/12/03 04:50:28;;;;;;;1.67;0.80;;;3.30;92.10;;;;;;5069197;28;20087;-57
2021/12/03 04:52:55;;;;;;;2.90;0.88;;;3.30;92.30;;;;;;5069149;28;20045;-57
2021/12/03 04:55:22;;;;;;;2.03;0.98;;;3.30;92.30;;;;;;5069394;28;20120;-58
2021/12/03 04:57:53;;;;;;;1.95;0.98;;;3.30;92.50;;;;;;5069098;28;20045;-58
2021/12/03 05:00:26;;;;;;;1.88;0.75;;;3.30;92.40;;;;;;5069171;28;20059;-58
2021/12/03 05:02:55;;;;;;;3.42;1.20;;;3.30;92.60;;;;;;5067431;28;20049;-58
2021/12/03 05:05:24;;;;;;;2.25;0.90;;;3.20;92.80;;;;;;5067508;28;20521;-58
2021/12/03 05:07:57;;;;;;;2.15;0.63;;;3.30;92.50;;;;;;5068874;28;20133;-57
2021/12/03 05:10:29;;;;;;;1.48;0.80;;;3.30;92.90;;;;;;5068974;28;20055;-58
2021/12/03 05:13:01;;;;;;;3.00;0.93;;;3.30;92.90;;;;;;5068710;28;20113;-57
2021/12/03 05:15:30;;;;;;;;;;;3.30;93.10;;;;;;5048210;28;20075;-58
2021/12/03 05:17:57;;;;;;;1.65;0.93;;;3.40;93.80;;;;;;5063460;28;19932;-58
2021/12/03 05:20:24;;;;;;;1.85;0.88;;;3.40;93.00;;;;;;5068726;28;20114;-59
2021/12/03 05:22:53;;;;;;;3.08;0.80;;;3.40;93.20;;;;;;5068153;28;20443;-60
2021/12/03 05:25:20;;;;;;;2.22;0.80;;;3.50;93.10;;;;;;5068776;28;20056;-58
2021/12/03 05:27:48;;;;;;;2.08;1.20;;;3.50;93.10;;;;;;5066971;28;20052;-59
2021/12/03 05:30:15;;;;;;;3.30;1.00;;;3.60;93.40;;;;;;5068371;28;20056;-58
2021/12/03 05:32:42;;;;;;;1.35;0.75;;;3.60;93.60;;;;;;5068369;28;20040;-60
2021/12/03 05:35:09;;;;;;;2.92;0.70;;;3.60;93.70;;;;;;5068393;28;20106;-58
2021/12/03 05:37:36;;;;;;;3.30;0.85;;;3.60;93.50;;;;;;5068291;28;20119;-58
2021/12/03 05:40:04;;;;;;;2.67;0.80;;;3.70;93.70;;;;;;5068307;28;20487;-58
2021/12/03 05:42:31;;;;;;;7.28;1.15;;;3.80;93.80;;;;;;5066980;28;20070;-58
2021/12/03 05:44:58;;;;;;;1.95;0.80;;;3.80;94.20;;;;;;5068334;28;20044;-57
2021/12/03 05:47:25;;;;;;;1.73;0.73;;;3.80;94.80;;;;;;5068593;28;20532;-58
2021/12/03 05:49:52;;;;;;;3.15;1.73;;;3.90;95.00;;;;;;5067747;28;20110;-59
2021/12/03 05:52:19;;;;;;;5.43;0.88;;;3.90;95.50;;;;;;5067171;28;20052;-58
2021/12/03 05:54:46;;;;;;;2.60;0.98;;;3.90;96.00;;;;;;5068018;28;20040;-58
2021/12/03 05:57:13;;;;;;;8.10;1.17;;;3.90;95.20;;;;;;5066784;28;20045;-56
2021/12/03 05:59:40;;;;;;;2.85;0.80;;;4.00;95.20;;;;;;5067744;28;20044;-57
2021/12/03 06:02:07;;;;;;;1.20;0.70;;;4.00;95.40;;;;;;5068044;28;20492;-58
2021/12/03 06:04:34;;;;;;;1.98;0.80;;;4.00;96.20;;;;;;5067663;28;20049;-59
2021/12/03 06:07:01;;;;;;;1.73;0.82;;;4.00;95.70;;;;;;5066982;28;20094;-59
2021/12/03 06:09:28;;;;;;;0.95;0.40;;;4.10;95.70;;;;;;5067758;28;20052;-57
2021/12/03 06:11:54;;;;;;;1.10;0.82;;;4.10;96.30;;;;;;5068009;28;20053;-60
2021/12/03 06:14:21;;;;;;;2.35;0.80;;;4.20;96.20;;;;;;5068405;28;20118;-59
2021/12/03 06:16:48;;;;;;;3.00;0.90;;;4.20;96.30;;;;;;5068001;28;20053;-58
2021/12/03 06:19:15;;;;;;;4.10;0.80;;;4.20;96.40;;;;;;5068263;28;20052;-58
2021/12/03 06:21:42;;;;;;;3.70;0.80;;;4.30;96.50;;;;;;5067886;28;20045;-59
2021/12/03 06:24:09;;;;;;;1.20;0.60;;;4.30;96.80;;;;;;5066230;28;20059;-61
2021/12/03 06:26:36;;;;;;;0.30;0.30;;;4.40;96.30;;;;;;5067785;28;20127;-58
2021/12/03 06:29:02;;;;;;;0.68;0.40;;;4.40;96.30;;;;;;5067910;28;20048;-58
2021/12/03 06:31:29;;;;;;;0.75;0.50;;;4.50;96.20;;;;;;5067386;28;20085;-59
2021/12/03 06:33:56;;;;;;;0.95;0.60;;;4.50;96.20;;;;;;5065796;28;20552;-58
2021/12/03 06:36:24;;;;;;;2.28;0.40;;;4.50;96.50;;;;;;5067934;28;20045;-58
2021/12/03 06:38:52;;;;;;;1.02;0.60;;;4.60;96.60;;;;;;5066641;28;20045;-59
2021/12/03 06:41:19;;;;;;;1.10;0.45;;;4.60;96.30;;;;;;5065895;28;20083;-59
2021/12/03 06:43:46;;;;;;;1.38;0.90;;;4.70;96.80;;;;;;5067913;28;20080;-58
2021/12/03 06:46:12;;;;;;;3.05;0.70;;;4.70;96.60;;;;;;5067687;28;20086;-58
2021/12/03 06:48:40;;;;;;;2.50;0.50;;;4.70;96.50;;;;;;5067931;28;20101;-59
2021/12/03 06:51:07;;;;;;;4.75;0.70;;;4.80;96.80;;;;;;5065900;28;20167;-59
2021/12/03 06:53:53;;;;;;;3.05;0.60;;;4.80;96.80;;;;;;5068001;28;20141;-59
2021/12/03 06:56:22;;;;;;;0.50;0.50;;;4.90;96.80;;;;;;5066514;28;20048;-59
2021/12/03 06:58:48;;;;;;;0.40;0.40;;;5.00;96.80;;;;;;5066080;28;20075;-59
2021/12/03 07:01:16;;;;;;;0.52;0.50;;;5.00;96.70;;;;;;5068052;28;20457;-59
2021/12/03 07:03:46;;;;;;;1.08;0.60;;;5.10;97.40;;;;;;5071437;28;20102;-59
2021/12/03 07:06:13;;;;;;;1.08;0.60;;;5.10;97.10;;;;;;5070714;28;20052;-59
2021/12/03 07:08:40;;;;;;;3.00;0.45;;;5.10;96.90;;;;;;5071087;28;20110;-59
2021/12/03 07:11:07;;;;;;;0.93;0.40;;;5.20;96.80;;;;;;4718432;28;10000537;-59
2021/12/03 07:13:34;;;;;;;0.60;0.55;;;5.20;97.60;;;;;;5067990;28;20078;-59
2021/12/03 07:16:04;;;;;;;3.80;0.40;;;5.30;97.20;;;;;;5066103;28;20076;-59
2021/12/03 07:18:31;;;;;;;0.35;0.35;;;5.30;96.80;;;;;;5067453;28;20059;-59
2021/12/03 07:20:58;;;;;;;1.52;0.50;;;5.40;97.50;;;;;;5067515;28;20123;-59
2021/12/03 07:23:25;;;;;;;0.95;0.43;;;5.40;97.30;;;;;;5037986;28;20068;-59
2021/12/03 07:25:52;;;;;;;1.40;0.80;;;5.50;97.60;;;;;;5067623;28;20135;-60
2021/12/03 07:28:19;;;;;;;1.02;0.50;;;5.50;97.30;;;;;;5067224;28;20080;-59
2021/12/03 07:30:46;;;;;;;1.70;0.50;;;5.60;97.40;;;;;;5067368;28;20087;-59
2021/12/03 07:33:16;;;;;;;0.55;0.30;;;5.60;97.50;;;;;;5066527;28;20478;-59
2021/12/03 07:35:45;;;;;;;0.63;0.40;;;5.60;97.30;;;;;;5066765;28;20145;-58
2021/12/03 07:38:14;;;;;;;0.50;0.50;;;5.90;97.30;;;;;;5066689;28;20052;-57
2021/12/03 07:40:42;;;;;;;0.73;0.40;;;5.70;97.40;;;;;;5066721;28;20067;-57
2021/12/03 07:43:09;;;;;;;0.73;0.60;;;5.80;97.50;;;;;;5065973;28;20053;-56
2021/12/03 07:45:36;;;;;;;0.65;0.50;;;5.80;98.10;;;;;;5065218;28;20118;-56
2021/12/03 07:48:04;;;;;;;0.55;0.40;;;5.80;97.40;;;;;;5065899;28;20045;-56
2021/12/03 07:50:35;;;;;;;0.82;0.60;;;5.90;97.40;;;;;;5065517;28;20575;-57
2021/12/03 07:53:03;;;;;;;2.65;0.30;;;5.90;97.30;;;;;;5066828;28;20101;-57
2021/12/03 07:55:30;;;;;;;0.43;0.32;;;6.00;97.40;;;;;;5066752;28;20055;-56
2021/12/03 07:58:01;;;;;;;0.70;0.43;;;6.00;97.40;;;;;;5065749;28;20052;-57
2021/12/03 08:00:28;;;;;;;0.52;0.30;;;6.10;97.20;;;;;;5065991;28;20049;-54
2021/12/03 08:03:14;;;;;;;0.85;0.40;;;6.20;97.50;;;;;;5064945;28;20168;-57
2021/12/03 08:05:41;;;;;;;0.38;0.30;;;6.20;97.10;;;;;;5066304;28;20087;-53
2021/12/03 08:08:09;;;;;;;0.47;0.47;;;6.30;97.10;;;;;;5065853;28;20320;-54
2021/12/03 08:10:36;;;;;;;0.50;0.30;;;6.30;97.00;;;;;;5065205;28;20056;-54
2021/12/03 08:13:03;;;;;;;2.25;0.55;;;6.40;97.50;;;;;;5065184;28;20067;-56
2021/12/03 08:15:36;;;;;;;1.95;0.80;;;6.40;97.20;;;;;;5066151;28;20048;-53
2021/12/03 08:18:04;;;;;;;2.13;0.60;;;6.40;97.00;;;;;;5066149;28;20428;-55
2021/12/03 08:20:32;;;;;;;0.40;0.40;;;6.50;97.20;;;;;;5066231;28;20155;-57
2021/12/03 08:22:59;;;;;;;1.23;0.40;;;6.50;96.90;;;;;;5065856;28;20053;-56
2021/12/03 08:25:26;;;;;;;0.95;0.50;;;6.50;97.10;;;;;;5065963;28;20040;-60
2021/12/03 08:27:54;;;;;;;2.15;0.50;;;6.50;97.00;;;;;;5065775;28;20052;-57
2021/12/03 08:30:20;;;;;;;1.98;0.70;;;6.60;97.00;;;;;;5069141;28;20067;-56
2021/12/03 08:32:48;;;;;;;2.53;0.50;;;6.60;97.10;;;;;;5066682;28;20044;-55
2021/12/03 08:35:15;;;;;;;1.10;0.60;;;6.60;97.10;;;;;;5068144;28;20126;-56
2021/12/03 08:37:46;;;;;;;0.90;0.60;;;6.70;97.00;;;;;;5067268;28;20048;-56
2021/12/03 08:40:13;;;;;;;1.17;0.60;;;6.70;97.20;;;;;;5068454;28;20049;-56
2021/12/03 08:42:40;;;;;;;1.15;0.43;;;6.70;97.10;;;;;;5066843;28;20125;-55
2021/12/03 08:45:08;;;;;;;3.05;0.70;;;6.80;97.30;;;;;;5067894;28;20496;-55
2021/12/03 08:47:36;;;;;;;5.35;0.75;;;6.80;97.10;;;;;;5066650;28;20048;-54
2021/12/03 08:50:12;;;;;;;3.00;0.70;;;6.80;97.10;;;;;;5065296;28;20052;-56
2021/12/03 08:55:24;;;;;;;1.23;0.52;;;6.90;97.10;;;;;;5063783;28;20072;-56
2021/12/03 08:57:51;;;;;;;1.90;0.60;;;6.90;97.10;;;;;;5048511;28;20064;-57
2021/12/03 09:00:21;;;;;;;0.90;0.70;;;7.00;97.40;;;;;;5063039;28;20048;-57
2021/12/03 09:02:48;;;;;;;7.15;1.02;;;7.00;97.40;;;;;;5068691;28;20056;-57
2021/12/03 09:05:15;;;;;;;2.83;0.80;;;7.00;97.30;;;;;;5068426;28;20045;-56
2021/12/03 09:07:43;;;;;;;2.90;1.40;;;7.00;97.30;;;;;;5068989;28;20048;-57
2021/12/03 09:10:18;;;;;;;2.47;0.80;;;7.10;97.50;;;;;;5067155;28;20144;-58
2021/12/03 09:12:45;;;;;;;3.83;1.00;;;7.10;97.30;;;;;;5068519;28;20052;-58
2021/12/03 09:15:16;;;;;;;1.45;0.90;;;7.10;97.60;;;;;;5068350;28;20072;-60
2021/12/03 09:20:40;;;;;;;8.93;1.00;;;7.10;97.60;;;;;;5068308;28;20041;-57
2021/12/03 09:23:14;;;;;;;3.80;1.13;;;7.20;97.60;;;;;;5068193;28;20052;-57
2021/12/03 09:25:48;;;;;;;4.90;1.07;;;7.20;98.00;;;;;;5067504;28;20106;-55
2021/12/03 09:28:19;;;;;;;3.80;1.10;;;7.20;98.00;;;;;;5068506;28;20775;-56
2021/12/03 09:30:47;;;;;;;3.38;1.15;;;7.30;97.70;;;;;;5068511;28;20044;-56
2021/12/03 09:33:17;;;;;;;4.10;1.00;;;7.30;97.70;;;;;;5068789;28;20041;-54
2021/12/03 09:35:47;;;;;;;3.47;1.13;;;7.40;98.10;;;;;;5067316;28;20044;-56
2021/12/03 09:38:14;;;;;;;4.68;1.52;;;7.40;97.70;;;;;;5068456;28;20135;-56
2021/12/03 09:40:42;;;;;;;3.90;1.15;;;7.50;97.50;;;;;;5067992;28;20135;-57
2021/12/03 09:43:08;;;;;;;2.63;1.10;;;7.50;97.60;;;;;;5068431;28;20040;-61
2021/12/03 09:45:36;;;;;;;3.25;1.25;;;7.50;97.80;;;;;;5068006;28;20106;-56
2021/12/03 09:48:12;;;;;;;2.20;1.17;;;7.60;97.60;;;;;;5067640;28;20048;-55
2021/12/03 09:50:40;;;;;;;3.33;1.17;;;7.60;97.90;;;;;;5067911;28;20392;-58
2021/12/03 09:53:43;;;;;;;2.00;1.20;;;7.70;97.80;;;;;;5063802;28;20116;-57
2021/12/03 09:55:54;;;;;;;6.45;1.30;;;7.90;97.70;;;;;;5067874;28;20044;-57
2021/12/03 10:01:09;;;;;;;7.55;1.58;;;7.90;97.60;;;;;;5068158;28;20446;-57
2021/12/03 10:03:57;;;;;;;7.45;1.58;;;7.90;97.60;;;;;;5067967;28;20052;-58
2021/12/03 10:15:07;;;;;;;2.30;1.23;;;8.10;97.80;;;;;;5025443;28;20497;-56
2021/12/03 10:23:19;;;;;;;7.82;2.22;;;8.40;97.60;;;;;;5067357;28;20044;-56
2021/12/03 10:41:47;;;;;;;3.40;1.42;;;8.70;97.10;;;;;;5071347;28;20113;-56
2021/12/03 10:44:01;;;;;;;6.28;0.98;;;8.70;97.10;;;;;;5059505;28;20071;-56
2021/12/03 10:46:54;;;;;;;7.53;1.45;;;8.80;97.10;;;;;;5051738;28;20102;-56
2021/12/03 10:51:58;;;;;;;4.18;1.15;;;8.90;97.20;;;;;;5071458;28;20049;-56
2021/12/03 10:54:52;;;;;;;3.00;1.17;;;8.90;97.40;;;;;;5070486;28;20051;-56
2021/12/03 11:06:24;;;;;;;3.08;1.23;;;8.90;97.30;;;;;;5061725;28;20117;-56
2021/12/03 11:12:21;;;;;;;2.75;1.17;;;8.90;97.40;;;;;;5070990;28;20086;-56
2021/12/03 11:34:09;;;;;;;4.43;1.98;;;9.20;97.10;;;;;;5069694;28;20051;-55
2021/12/03 12:05:10;;;;;;;4.60;1.67;;;9.50;97.00;;;;;;5049719;28;20497;-56
2021/12/03 12:33:28;;;;;;;4.00;1.13;;;9.60;96.70;;;;;;5069018;28;20052;-57
2021/12/03 12:41:13;;;;;;;3.58;1.73;;;9.60;96.40;;;;;;5048335;28;20126;-56
2021/12/03 14:00:26;;;;;;;6.22;2.03;;;9.50;95.00;;;;;;5066326;28;20056;-57
2021/12/03 14:42:21;;;;;;;4.28;3.00;;;9.30;95.30;;;;;;5067079;28;20049;-57
2021/12/03 14:47:53;;;;;;;5.68;3.40;;;9.30;95.20;;;;;;5066322;28;20048;-57
2021/12/03 14:55:56;;;;;;;4.25;2.75;;;9.20;95.50;;;;;;5066761;28;20102;-57
2021/12/03 14:58:32;;;;;;;5.75;3.33;;;9.20;95.30;;;;;;5065771;28;20084;-58
2021/12/03 15:01:09;;;;;;;10.00;3.38;;;9.20;95.40;;;;;;5067073;28;20045;-56
2021/12/03 15:04:03;;;;;;;7.63;3.35;;;9.20;95.40;;;;;;5066100;28;20455;-57
2021/12/03 15:06:35;;;;;;;7.05;3.05;;;9.20;95.40;;;;;;5066796;28;20049;-57
2021/12/03 15:09:15;;;;;;;5.55;2.67;;;9.30;95.50;;;;;;5065833;28;20060;-59
2021/12/03 15:20:11;;;;;;;6.03;3.53;;;9.20;95.50;;;;;;5066712;28;20139;-59
2021/12/03 15:25:13;;;;;;;10.15;4.78;;;9.20;95.50;;;;;;5070121;28;20049;-57
2021/12/03 15:35:41;;;;;;;13.85;4.82;;;9.20;95.60;;;;;;5068883;28;20044;-59
2021/12/03 16:08:23;;;;;;;6.35;4.28;;;9.30;95.60;;;;;;5069159;28;20479;-57
2021/12/03 16:13:35;;;;;;;6.07;3.70;;;9.20;95.60;;;;;;5067835;28;20078;-57
2021/12/03 16:21:43;;;;;;;9.35;4.57;;;9.10;95.80;;;;;;5068688;28;20112;-57
2021/12/03 16:53:39;;;;;;;21.35;8.27;;;9.00;95.80;;;;;;5063875;28;20076;-58
2021/12/03 16:56:24;;;;;;;;;;;8.90;95.80;;;;;;5061060;28;20048;-56
2021/12/03 16:58:51;;;;;;;19.23;8.68;;;8.90;96.10;;;;;;5064585;28;19970;-56
2021/12/03 17:01:32;;;;;;;25.08;8.32;;;9.00;95.80;;;;;;5065341;28;20526;-56
2021/12/03 17:12:14;;;;;;;22.70;8.80;;;8.90;96.00;;;;;;5063340;28;20148;-57
2021/12/03 17:50:10;;;;;;;26.17;13.65;;;8.60;96.20;;;;;;5063919;28;20057;-57
2021/12/03 17:55:29;;;;;;;23.63;14.43;;;8.60;96.10;;;;;;5064738;28;20094;-55
2021/12/03 18:44:01;;;;;;;28.00;14.05;;;8.10;97.00;;;;;;5058099;28;20486;-54
2021/12/03 18:49:46;;;;;;;19.55;12.00;;;8.10;97.10;;;;;;5065072;28;20484;-56
2021/12/03 18:56:55;;;;;;;26.02;12.63;;;8.10;97.00;;;;;;5065038;28;20052;-56
2021/12/03 18:59:25;;;;;;;29.35;14.95;;;8.30;96.90;;;;;;5071175;28;20049;-55
2021/12/03 19:01:52;;;;;;;25.77;14.00;;;8.10;97.00;;;;;;5068920;28;20052;-53
2021/12/03 19:04:30;;;;;;;28.08;13.88;;;8.00;96.90;;;;;;5068255;28;20072;-55
2021/12/03 19:07:04;;;;;;;28.42;15.77;;;8.00;96.90;;;;;;5060366;28;20504;-59
2021/12/03 19:09:37;;;;;;;34.17;15.85;;;8.00;97.00;;;;;;5070414;28;20079;-55
2021/12/03 19:12:18;;;;;;;31.95;14.15;;;8.00;97.10;;;;;;5059828;28;20484;-61
2021/12/03 19:14:51;;;;;;;32.92;15.20;;;8.00;97.20;;;;;;5068694;28;20090;-55
2021/12/03 19:17:18;;;;;;;32.87;14.97;;;8.10;96.90;;;;;;5069074;28;20097;-54
2021/12/03 19:19:46;;;;;;;33.50;15.65;;;8.10;97.00;;;;;;5068339;28;20212;-55
2021/12/03 19:22:14;;;;;;;37.00;18.15;;;8.00;97.00;;;;;;5070039;28;20076;-54
2021/12/03 19:24:41;;;;;;;38.00;18.52;;;8.00;97.00;;;;;;5052968;28;20482;-55
2021/12/03 19:27:10;;;;;;;34.15;16.75;;;8.00;97.00;;;;;;5070092;28;20113;-53
2021/12/03 19:29:38;;;;;;;28.75;15.32;;;8.10;97.00;;;;;;5070130;28;20068;-56
2021/12/03 19:32:06;;;;;;;35.42;13.98;;;8.10;97.00;;;;;;5068746;28;20075;-58
2021/12/03 19:34:32;;;;;;;31.15;15.13;;;8.10;96.90;;;;;;5070585;28;20049;-56
2021/12/03 19:36:59;;;;;;;24.65;13.60;;;8.10;96.90;;;;;;5069851;28;20087;-57
2021/12/03 19:39:26;;;;;;;24.95;13.95;;;8.10;96.90;;;;;;5067742;28;20126;-56
2021/12/03 19:44:43;;;;;;;18.67;10.90;;;8.10;97.10;;;;;;5066519;28;20106;-54
2021/12/03 19:47:11;;;;;;;26.00;12.20;;;8.00;96.90;;;;;;5064633;28;20139;-55
2021/12/03 19:54:51;;;;;;;21.70;12.63;;;8.00;97.00;;;;;;5066196;28;20106;-56
2021/12/03 19:57:18;;;;;;;21.58;11.82;;;8.00;97.00;;;;;;5066160;28;20075;-55
2021/12/03 19:59:45;;;;;;;27.75;14.45;;;8.00;97.00;;;;;;5065320;28;20495;-56
2021/12/03 20:02:17;;;;;;;26.17;14.73;;;7.90;97.00;;;;;;5065059;28;20357;-56
2021/12/03 20:04:45;;;;;;;26.85;13.13;;;7.90;97.00;;;;;;5063134;28;20053;-56
2021/12/03 20:07:12;;;;;;;27.33;12.95;;;7.90;97.10;;;;;;5065736;28;20095;-54
2021/12/03 20:09:58;;;;;;;24.13;13.07;;;7.90;97.00;;;;;;5063248;28;20045;-56
2021/12/03 20:12:26;;;;;;;24.02;13.70;;;7.90;97.00;;;;;;5062784;28;20471;-56
2021/12/03 20:14:55;;;;;;;26.48;12.55;;;7.90;97.30;;;;;;5064824;28;20045;-56
2021/12/03 20:17:34;;;;;;;24.45;12.05;;;7.90;97.00;;;;;;5055547;28;20140;-58
2021/12/03 20:20:03;;;;;;;24.25;13.13;;;7.90;97.00;;;;;;5065435;28;20530;-56
2021/12/03 20:25:36;;;;;;;24.40;12.20;;;7.90;96.90;;;;;;5065305;28;20131;-56
2021/12/03 20:38:19;;;;;;;23.88;13.77;;;7.80;96.90;;;;;;5048149;28;20052;-55
2021/12/03 20:40:52;;;;;;;21.48;12.30;;;7.70;97.10;;;;;;5062038;28;20051;-56
2021/12/03 20:46:40;;;;;;;33.00;18.38;;;7.60;97.30;;;;;;5065127;28;20110;-56
2021/12/03 21:10:30;;;;;;;34.35;16.60;;;7.70;97.50;;;;;;5063898;28;20534;-55